Airfield :
LOGIN :

Register | Disclaimer

   EN    FR    IT 

 










Legend :    VFR   Marginal VFR   IFR   Intensive IFR   Very Intensive IFR
Visi :
Ceiling :
>= 8 km
>= 3000ft
5 to 8 km
1000 to 3000 ft
1500m to 5 km
500 to 1000 ft
800 to 1500m
200 to 500 ft
< 800m
< 200 ft
Symbols :   Thunderstorms  Fog  Heavy snow  Heavy precipitations  Wind > 20 kt
SIGMETs :     Misc.  Thunderstorms  Icing  Turbulence  Mountain Waves  Volcanic Ashes






- Airport Elevation : 11 ft
- IATA code : MJV


LELC - Murcia San Javier

CURRENT METAR :
  • 190430Z AUTO 27004KT 250V320 CAVOK 21/18 Q1011

EXPIRED METARs :
  • 190400Z AUTO 25004KT 9000 NSC 21/18 Q1011
  • 190330Z AUTO 24004KT 9000 NSC 21/18 Q1011
  • 190300Z AUTO 24004KT 9000 NSC 22/18 Q1011
  • 190230Z AUTO 25004KT 220V280 9000 NSC 22/18 Q1012
  • 190200Z AUTO 23004KT 210V280 9000 NSC 22/18 Q1012
  • 190130Z AUTO VRB02KT 9000 NSC 22/19 Q1012
  • 190100Z AUTO 27003KT 230V300 8000 NSC 22/19 Q1012
  • 190030Z AUTO 28004KT 9000 NSC 21/19 Q1012
  • 190000Z AUTO 27003KT 240V300 9000 NSC 22/19 Q1011

TAF TAF LELC
Valid from the 19 at 00:00 until the 20 at 00:00 UTC


182300Z 1900/1924 VRB04KT 9999 FEW030 TX29/1915Z TN18/1906Z
BECMG 1908/1910 20010KT
PROB30
TEMPO 1914/1918 20015G26KT
BECMG 1921/1924 VRB03KT



MET'MAP, your aeronautical weather chart ! - Copyright ORBIFLY December 2007 - Disclaimer

ORBIFLY MET'MAP TEAM :

Programming & Development : Alexandra Zaïnal
Original concept : Baudouin d'Aumeries
Technical & hardware support : Manuel Goepfert
Assistance : Marc-Olivier Méhu




SOURCES & CREDITS :

   NOAA